Time;durP1;ratioP1;P1;durP2;ratioP2;P2;SDS_P1;SDS_P2;PMS_P1;PMS_P2;Temp;Humidity;BMP_temperature;BMP_pressure;BME280_temperature;BME280_humidity;BME280_pressure;Samples;Min_cycle;Max_cycle;Signal;HPM_P1;HPM_P2
2022/08/21 00:01:21;;;;;;;6.22;3.90;;;17.80;99.90;;;18.18;100.00;101117.28;5185478;28;20112;-67
2022/08/21 00:03:54;;;;;;;8.05;4.00;;;17.80;99.90;;;18.16;100.00;101111.13;5185299;28;20121;-66
2022/08/21 00:06:26;;;;;;;8.50;3.90;;;17.80;99.90;;;18.12;100.00;101111.09;5185067;28;20502;-70
2022/08/21 00:08:58;;;;;;;6.38;3.63;;;17.80;99.90;;;18.08;100.00;101107.56;5185109;28;20195;-67
2022/08/21 00:11:33;;;;;;;6.13;3.63;;;17.80;99.90;;;18.07;100.00;101103.16;5185085;28;20050;-70
2022/08/21 00:14:06;;;;;;;7.88;4.07;;;17.70;99.90;;;18.04;100.00;101113.66;5185158;28;20076;-67
2022/08/21 00:16:39;;;;;;;8.00;3.97;;;17.70;99.90;;;18.01;100.00;101108.38;5184697;28;20050;-68
2022/08/21 00:19:11;;;;;;;5.95;3.38;;;17.70;99.90;;;17.99;100.00;101103.94;5166994;28;20049;-69
2022/08/21 00:21:44;;;;;;;7.53;3.80;;;17.70;99.90;;;17.97;100.00;101101.28;5167574;28;20054;-66
2022/08/21 00:24:16;;;;;;;7.25;3.53;;;17.60;99.90;;;17.95;100.00;101104.78;5167452;28;20120;-67
2022/08/21 00:26:51;;;;;;;7.28;3.67;;;17.60;99.90;;;17.92;100.00;101094.19;5184646;28;20446;-67
2022/08/21 00:29:25;;;;;;;6.55;3.65;;;17.60;99.90;;;17.88;100.00;101093.28;5184900;28;20050;-67
2022/08/21 00:31:58;;;;;;;;;;;17.60;99.90;;;17.85;100.00;101088.84;5167774;28;20491;-68
2022/08/21 00:34:30;;;;;;;7.05;3.88;;;17.50;99.90;;;17.82;100.00;101088.84;5184777;28;20383;-68
2022/08/21 00:37:04;;;;;;;5.53;3.50;;;17.50;99.90;;;17.80;100.00;101081.75;5166698;28;20481;-67
2022/08/21 00:39:36;;;;;;;7.65;4.10;;;17.50;99.90;;;17.80;100.00;101095.88;5184713;28;20388;-67
2022/08/21 00:42:14;;;;;;;7.00;3.70;;;17.50;99.90;;;17.78;100.00;101096.69;5184541;28;20064;-68
2022/08/21 00:44:49;;;;;;;5.97;3.80;;;17.40;99.90;;;17.74;100.00;101094.91;5184690;28;20048;-67
2022/08/21 00:47:22;;;;;;;7.00;3.55;;;17.40;99.90;;;17.72;100.00;101096.63;5184273;28;20046;-67
2022/08/21 00:49:54;;;;;;;7.60;4.07;;;17.40;99.90;;;17.67;100.00;101093.03;5184314;28;20107;-70
2022/08/21 00:52:31;;;;;;;6.03;3.63;;;17.40;99.90;;;17.61;100.00;101089.47;5166634;28;20478;-67
2022/08/21 00:55:05;;;;;;;5.93;3.63;;;17.30;99.90;;;17.55;100.00;101089.41;5167064;28;20056;-65
2022/08/21 00:57:44;;;;;;;8.40;4.07;;;17.30;99.90;;;17.50;100.00;101088.47;5184393;28;20045;-67
2022/08/21 01:00:21;;;;;;;6.85;3.72;;;17.20;99.90;;;17.47;100.00;101090.16;5184344;28;20050;-68
2022/08/21 01:02:55;;;;;;;7.72;4.28;;;17.10;99.90;;;17.45;100.00;101087.53;5184226;28;20073;-68
2022/08/21 01:05:27;;;;;;;7.47;4.28;;;17.10;99.90;;;17.46;100.00;101086.66;5167001;28;20053;-68
2022/08/21 01:08:00;;;;;;;6.82;4.03;;;17.10;99.90;;;17.49;100.00;101093.72;5184770;28;20108;-68
2022/08/21 01:10:33;;;;;;;6.45;3.75;;;17.10;99.90;;;17.47;100.00;101101.59;5167376;28;20050;-68
2022/08/21 01:13:09;;;;;;;5.78;3.70;;;17.10;99.90;;;17.44;100.00;101101.56;5167813;28;20053;-67
2022/08/21 01:15:46;;;;;;;6.35;3.63;;;17.10;99.90;;;17.40;100.00;101097.13;5184357;28;20050;-67
2022/08/21 01:18:21;;;;;;;7.15;3.50;;;17.10;99.90;;;17.38;100.00;101096.22;5183970;28;20506;-66
2022/08/21 01:21:07;;;;;;;;;;;17.10;99.90;;;17.37;100.00;101105.00;5184445;28;20049;-68
2022/08/21 01:23:44;;;;;;;7.20;3.42;;;17.10;99.90;;;17.34;100.00;101105.88;5184117;28;19921;-69
2022/08/21 01:26:21;;;;;;;6.43;3.15;;;17.00;99.90;;;17.29;100.00;101101.41;5165605;28;20494;-69
2022/08/21 01:29:00;;;;;;;7.10;3.17;;;17.00;99.90;;;17.25;100.00;101102.22;5182175;28;20511;-67
2022/08/21 01:31:33;;;;;;;8.63;3.97;;;17.00;99.90;;;17.20;100.00;101102.16;5165907;28;20045;-68
2022/08/21 01:34:06;;;;;;;5.53;3.42;;;16.90;99.90;;;17.15;100.00;101092.41;5183706;28;20121;-67
2022/08/21 01:36:40;;;;;;;6.13;3.65;;;16.90;99.90;;;17.13;100.00;101096.78;5165628;28;20144;-68
2022/08/21 01:39:13;;;;;;;6.38;3.60;;;16.80;99.90;;;17.11;100.00;101101.16;5166171;28;20561;-69
2022/08/21 01:41:46;;;;;;;6.78;3.45;;;16.80;99.90;;;17.10;100.00;101105.56;5183587;28;20451;-69
2022/08/21 01:44:22;;;;;;;7.57;3.92;;;16.80;99.90;;;17.09;100.00;101099.41;5183632;28;20050;-68
2022/08/21 01:46:56;;;;;;;6.50;3.38;;;16.80;99.90;;;17.09;100.00;101104.66;5182966;28;20038;-67
2022/08/21 01:49:28;;;;;;;7.38;3.55;;;16.80;99.90;;;17.09;100.00;101093.25;5184050;28;20038;-67
2022/08/21 01:52:03;;;;;;;7.90;3.88;;;16.80;99.90;;;17.06;100.00;101106.38;5183383;28;20046;-67
2022/08/21 01:54:36;;;;;;;8.38;4.25;;;16.80;99.90;;;17.03;100.00;101093.16;5183586;28;20049;-67
2022/08/21 01:57:10;;;;;;;6.93;3.85;;;16.70;99.90;;;17.03;100.00;101091.41;5182725;28;20046;-68
2022/08/21 01:59:42;;;;;;;7.43;4.18;;;16.70;99.90;;;16.95;100.00;101095.69;5183606;28;20569;-67
2022/08/21 02:02:15;;;;;;;6.75;3.80;;;16.70;99.90;;;16.92;100.00;101090.38;5183753;28;20065;-67
2022/08/21 02:04:48;;;;;;;6.63;4.22;;;16.60;99.90;;;16.88;100.00;101088.56;5183648;28;20046;-69
2022/08/21 02:07:23;;;;;;;5.90;3.70;;;16.60;99.90;;;16.88;100.00;101092.94;5182771;28;20066;-68
2022/08/21 02:09:55;;;;;;;5.32;3.30;;;16.60;99.90;;;16.85;100.00;101083.25;5183537;28;20085;-67
2022/08/21 02:12:27;;;;;;;6.80;3.45;;;16.60;99.90;;;16.82;100.00;101085.84;5183374;28;20124;-67
2022/08/21 02:15:00;;;;;;;5.55;3.33;;;16.50;99.90;;;16.82;100.00;101083.19;5183598;28;20038;-70
2022/08/21 02:17:40;;;;;;;6.28;3.75;;;16.50;99.90;;;16.79;100.00;101075.28;5182866;28;20134;-67
2022/08/21 02:20:24;;;;;;;7.25;3.90;;;16.50;99.90;;;16.75;100.00;101081.34;5183465;28;20574;-68
2022/08/21 02:22:58;;;;;;;5.60;3.53;;;16.50;99.90;;;16.72;100.00;101086.59;5183449;28;20065;-70
2022/08/21 02:25:31;;;;;;;6.18;3.40;;;16.40;99.90;;;16.70;100.00;101080.44;5183333;28;20088;-67
2022/08/21 02:28:07;;;;;;;7.05;3.50;;;16.40;99.90;;;16.67;100.00;101083.84;5182445;28;20046;-67
2022/08/21 02:30:44;;;;;;;5.70;3.30;;;16.40;99.90;;;16.63;100.00;101078.53;5183566;28;20442;-67
2022/08/21 02:33:17;;;;;;;4.78;3.17;;;16.30;99.90;;;16.55;100.00;101074.00;5183183;28;20065;-67
2022/08/21 02:35:51;;;;;;;6.75;3.63;;;16.30;99.90;;;16.52;100.00;101078.38;5182652;28;20053;-67
2022/08/21 02:38:32;;;;;;;6.30;3.63;;;16.30;99.90;;;16.49;100.00;101078.31;5182947;28;20065;-69
2022/08/21 02:41:07;;;;;;;5.18;3.42;;;16.20;99.90;;;16.48;100.00;101072.16;5183604;28;20499;-68
2022/08/21 02:43:40;;;;;;;6.60;3.58;;;16.20;99.90;;;16.48;100.00;101082.69;5186465;28;20042;-69
2022/08/21 02:46:17;;;;;;;6.97;3.70;;;16.20;99.90;;;16.44;100.00;101075.63;5186475;28;20038;-67
2022/08/21 02:48:50;;;;;;;5.25;3.15;;;16.20;99.90;;;16.41;100.00;101069.41;5186476;28;20076;-68
2022/08/21 02:51:23;;;;;;;6.80;3.47;;;16.20;99.90;;;16.38;100.00;101074.66;5186769;28;20046;-67
2022/08/21 02:53:56;;;;;;;6.55;3.45;;;16.10;99.90;;;16.34;100.00;101070.19;5186401;28;20048;-68
2022/08/21 02:56:29;;;;;;;5.60;3.55;;;16.10;99.90;;;16.33;100.00;101071.06;5186184;28;20411;-66
2022/08/21 02:59:01;;;;;;;5.03;3.17;;;16.10;99.90;;;16.32;100.00;101067.53;5168464;28;20057;-66
2022/08/21 03:01:33;;;;;;;5.00;3.47;;;16.10;99.90;;;16.29;100.00;101071.00;5168787;28;20042;-67
2022/08/21 03:04:06;;;;;;;6.65;3.47;;;16.00;99.90;;;16.27;100.00;101075.34;5186492;28;20084;-68
2022/08/21 03:06:38;;;;;;;6.82;3.20;;;16.00;99.90;;;16.23;100.00;101073.50;5168052;28;20499;-69
2022/08/21 03:09:12;;;;;;;6.53;3.60;;;16.00;99.90;;;16.22;100.00;101068.25;5186298;28;20045;-68
2022/08/21 03:11:44;;;;;;;5.00;3.58;;;16.00;99.90;;;16.20;100.00;101067.34;5186234;28;20053;-69
2022/08/21 03:14:16;;;;;;;7.45;3.47;;;15.90;99.90;;;16.18;100.00;101063.81;5186205;28;20092;-67
2022/08/21 03:16:49;;;;;;;6.45;3.60;;;15.90;99.90;;;16.16;100.00;101066.38;5186140;28;20107;-68
2022/08/21 03:19:21;;;;;;;5.93;3.50;;;15.90;99.90;;;16.16;100.00;101063.75;5186116;28;20038;-70
2022/08/21 03:21:54;;;;;;;5.55;3.45;;;15.90;99.90;;;16.15;100.00;101061.13;5185976;28;20050;-69
2022/08/21 03:24:27;;;;;;;7.30;3.13;;;15.90;99.90;;;16.15;100.00;101056.75;5186113;28;20449;-68
2022/08/21 03:27:00;;;;;;;7.30;3.08;;;15.90;99.90;;;16.11;100.00;101060.19;5185311;28;20046;-68
2022/08/21 03:29:32;;;;;;;5.22;3.30;;;15.90;99.90;;;16.10;100.00;101062.78;5168334;28;20377;-68
2022/08/21 03:32:05;;;;;;;6.70;3.88;;;15.80;99.90;;;16.06;100.00;101063.59;5185876;28;20046;-66
2022/08/21 03:34:38;;;;;;;5.80;3.03;;;15.80;99.90;;;16.02;100.00;101066.16;5185331;28;20108;-67
2022/08/21 03:37:12;;;;;;;5.28;3.17;;;15.80;99.90;;;15.98;100.00;101074.88;5185341;28;20506;-68
2022/08/21 03:39:47;;;;;;;5.93;3.40;;;15.70;99.90;;;15.94;100.00;101070.41;5168215;28;20058;-67
2022/08/21 03:42:20;;;;;;;5.53;3.38;;;15.70;99.90;;;15.92;100.00;101066.88;5167942;28;20501;-70
2022/08/21 03:44:52;;;;;;;8.88;3.50;;;15.70;99.90;;;15.91;100.00;101077.34;5185418;28;20519;-71
2022/08/21 03:47:26;;;;;;;8.05;3.95;;;15.70;99.90;;;15.87;100.00;101076.44;5167744;28;20052;-71
2022/08/21 03:49:59;;;;;;;5.03;3.00;;;15.70;99.90;;;15.86;100.00;101079.91;5185256;28;20053;-71
2022/08/21 03:52:31;;;;;;;6.82;3.72;;;15.60;99.90;;;15.84;100.00;101081.63;5185144;28;20095;-71
2022/08/21 03:55:06;;;;;;;7.72;3.30;;;15.60;99.90;;;15.82;100.00;101088.59;5185218;28;20514;-71
2022/08/21 03:57:38;;;;;;;6.35;3.50;;;15.60;99.90;;;15.78;100.00;101075.38;5185022;28;20518;-71
2022/08/21 04:00:13;;;;;;;7.35;3.67;;;15.60;99.90;;;15.74;100.00;101075.31;5185406;28;20077;-71
2022/08/21 04:02:47;;;;;;;12.55;3.95;;;15.50;99.90;;;15.73;100.00;101078.81;5184917;28;20041;-70
2022/08/21 04:05:27;;;;;;;7.97;3.58;;;15.50;99.90;;;15.74;100.00;101079.69;5185233;28;20059;-71
2022/08/21 04:08:04;;;;;;;7.32;3.72;;;15.50;99.90;;;15.74;100.00;101079.69;5184735;28;20046;-69
2022/08/21 04:10:39;;;;;;;5.35;3.42;;;15.50;99.90;;;15.72;100.00;101081.41;5185130;28;20052;-70
2022/08/21 04:13:12;;;;;;;7.22;3.80;;;15.50;99.90;;;15.71;100.00;101079.63;5185000;28;20095;-70
2022/08/21 04:15:44;;;;;;;6.72;3.85;;;15.50;99.90;;;15.67;100.00;101083.97;5184737;28;20034;-70
2022/08/21 04:18:18;;;;;;;9.85;4.38;;;15.40;99.90;;;15.64;100.00;101078.63;5184415;28;20098;-71
2022/08/21 04:20:52;;;;;;;8.07;3.90;;;15.40;99.90;;;15.63;100.00;101087.38;5167450;28;20042;-71
2022/08/21 04:23:25;;;;;;;8.20;3.95;;;15.40;99.90;;;15.65;100.00;101090.06;5184852;28;20054;-70
2022/08/21 04:25:59;;;;;;;7.25;3.97;;;15.40;99.90;;;15.62;100.00;101089.97;5184741;28;20038;-71
2022/08/21 04:28:32;;;;;;;8.50;3.72;;;15.40;99.90;;;15.59;100.00;101093.41;5184442;28;20045;-72
2022/08/21 04:31:05;;;;;;;5.38;3.40;;;15.40;99.90;;;15.59;100.00;101097.78;5183915;28;20061;-70
2022/08/21 04:33:37;;;;;;;6.88;3.80;;;15.40;99.90;;;15.57;100.00;101096.84;5184554;28;20534;-71
2022/08/21 04:36:10;;;;;;;6.07;3.88;;;15.30;99.90;;;15.55;100.00;101094.19;5166641;28;20057;-71
2022/08/21 04:38:42;;;;;;;6.63;3.90;;;15.30;99.90;;;15.54;100.00;101100.31;5184354;28;20511;-71
2022/08/21 04:41:16;;;;;;;6.53;3.67;;;15.30;99.90;;;15.54;100.00;101099.44;5184178;28;20414;-71
2022/08/21 04:43:49;;;;;;;6.32;3.90;;;15.30;99.90;;;15.57;100.00;101099.47;5184248;28;20049;-70
2022/08/21 04:46:22;;;;;;;7.90;3.70;;;15.30;99.90;;;15.59;100.00;101100.41;5184344;28;20041;-71
2022/08/21 04:48:54;;;;;;;6.07;3.13;;;15.30;99.90;;;15.60;100.00;101102.19;5183790;28;20064;-71
2022/08/21 04:51:31;;;;;;;5.00;3.42;;;15.30;99.90;;;15.62;100.00;101100.50;5184333;28;20052;-72
2022/08/21 04:54:09;;;;;;;6.07;3.55;;;15.40;99.90;;;15.66;100.00;101107.59;5184054;28;20565;-71
2022/08/21 04:56:46;;;;;;;5.38;3.30;;;15.40;99.90;;;15.67;100.00;101104.97;5184165;28;20128;-71
2022/08/21 04:59:24;;;;;;;4.97;3.42;;;15.40;99.90;;;15.70;100.00;101104.13;5184470;28;20049;-71
2022/08/21 05:01:57;;;;;;;6.45;3.63;;;15.50;99.90;;;15.74;100.00;101111.25;5183933;28;20100;-70
2022/08/21 05:04:34;;;;;;;8.38;3.72;;;15.50;99.90;;;15.78;100.00;101109.53;5165562;28;20048;-71
2022/08/21 05:07:13;;;;;;;8.27;3.83;;;15.50;99.90;;;15.82;100.00;101114.88;5184026;28;20045;-71
2022/08/21 05:09:46;;;;;;;7.07;4.03;;;15.60;99.90;;;15.88;100.00;101115.00;5166523;28;20052;-72
2022/08/21 05:12:20;;;;;;;6.28;3.63;;;15.60;99.90;;;15.96;100.00;101115.13;5184016;28;20054;-71
2022/08/21 05:14:52;;;;;;;6.22;3.85;;;15.70;99.90;;;16.02;100.00;101121.38;5183454;28;20145;-71
2022/08/21 05:17:25;;;;;;;5.53;3.35;;;15.70;99.90;;;16.10;100.00;101120.63;5166002;28;20050;-70
2022/08/21 05:19:57;;;;;;;5.63;3.33;;;15.80;99.90;;;16.15;100.00;101134.75;5165993;28;20050;-70
2022/08/21 05:22:29;;;;;;;7.75;3.63;;;15.90;99.90;;;16.21;100.00;101134.88;5183673;28;20127;-71
2022/08/21 05:25:01;;;;;;;6.53;3.97;;;15.90;99.90;;;16.30;100.00;101137.66;5183681;28;20285;-71
2022/08/21 05:27:36;;;;;;;5.38;3.70;;;16.00;99.90;;;16.40;100.00;101136.94;5183761;28;20046;-70
2022/08/21 05:30:12;;;;;;;6.65;3.55;;;16.10;99.90;;;16.55;100.00;101137.19;5183686;28;20053;-71
2022/08/21 05:32:44;;;;;;;6.38;3.17;;;16.20;99.90;;;17.12;100.00;101145.06;5183737;28;20327;-72
2022/08/21 05:35:16;;;;;;;7.72;3.70;;;16.50;99.90;;;18.29;100.00;101135.88;5183228;28;20037;-71
2022/08/21 05:37:49;;;;;;;6.35;3.63;;;17.20;99.90;;;19.94;100.00;101133.28;5165844;28;20049;-71
2022/08/21 05:40:21;;;;;;;7.32;3.58;;;18.40;99.90;;;21.62;93.12;101133.06;5183656;28;20092;-71
2022/08/21 05:42:56;;;;;;;7.50;3.80;;;19.80;99.90;;;23.18;84.19;101142.44;5183874;28;20045;-71
2022/08/21 05:45:33;;;;;;;8.05;3.45;;;21.20;99.10;;;24.52;76.59;101135.25;5183381;28;20057;-71
2022/08/21 05:48:10;;;;;;;8.00;3.20;;;22.50;95.90;;;25.67;71.48;101132.97;5183404;28;20050;-70
2022/08/21 05:50:45;;;;;;;5.45;3.40;;;23.60;92.80;;;26.46;68.49;101132.94;5166034;28;20050;-69
2022/08/21 05:53:20;;;;;;;6.03;2.85;;;24.40;90.20;;;27.27;65.31;101138.81;5183458;28;20041;-69
2022/08/21 05:55:53;;;;;;;6.20;3.03;;;25.20;85.40;;;27.96;62.97;101142.06;5183270;28;20065;-65
2022/08/21 05:58:27;;;;;;;4.63;3.03;;;25.90;81.30;;;28.63;61.46;101138.09;5165678;28;20081;-67
2022/08/21 06:01:00;;;;;;;;;;;26.50;77.90;;;29.34;59.68;101139.13;5184094;28;20049;-65
2022/08/21 06:03:36;;;;;;;4.53;2.80;;;27.20;74.70;;;29.98;57.94;101133.94;5166206;28;20295;-66
2022/08/21 06:06:09;;;;;;;5.55;2.88;;;27.70;71.80;;;30.53;56.59;101141.56;5182689;28;20046;-56
2022/08/21 06:08:41;;;;;;;5.35;2.75;;;28.30;69.50;;;30.99;55.22;101139.59;5182766;28;20479;-58
2022/08/21 06:11:13;;;;;;;6.65;2.90;;;28.70;67.50;;;31.32;54.43;101148.84;5182921;28;20049;-59
2022/08/21 06:13:47;;;;;;;6.45;3.38;;;29.00;65.70;;;31.70;53.72;101150.72;5182881;28;20074;-58
2022/08/21 06:16:19;;;;;;;4.00;2.67;;;29.40;64.20;;;32.22;52.64;101146.38;5184734;28;20088;-59
2022/08/21 06:18:51;;;;;;;4.60;2.65;;;29.80;62.80;;;32.70;51.96;101157.47;5186781;28;20112;-59
2022/08/21 06:21:24;;;;;;;5.25;3.00;;;30.30;61.80;;;33.21;50.64;101149.34;5186782;28;20403;-58
2022/08/21 06:23:56;;;;;;;4.55;2.13;;;30.70;60.50;;;33.64;50.15;101147.00;5186671;28;20072;-58
2022/08/21 06:26:28;;;;;;;5.68;2.60;;;31.10;59.30;;;33.94;49.33;101146.25;5186241;28;20081;-59
2022/08/21 06:29:02;;;;;;;3.55;2.50;;;31.40;58.20;;;34.10;48.89;101144.41;5186455;28;20526;-61
2022/08/21 06:31:35;;;;;;;5.97;2.78;;;31.60;57.50;;;34.32;48.61;101148.56;5186427;28;20042;-61
2022/08/21 06:34:07;;;;;;;3.53;2.35;;;31.80;57.00;;;34.53;48.57;101142.78;5186390;28;20403;-63
2022/08/21 06:36:39;;;;;;;4.15;2.30;;;32.00;56.60;;;34.19;47.97;101138.47;5186049;28;20096;-60
2022/08/21 06:39:13;;;;;;;5.00;2.60;;;31.90;55.70;;;32.08;50.66;101138.06;5186179;28;20049;-60
2022/08/21 06:41:45;;;;;;;5.47;2.63;;;30.80;56.40;;;30.06;54.15;101130.06;5186311;28;20045;-62
2022/08/21 06:44:19;;;;;;;6.82;3.22;;;29.40;58.40;;;28.49;57.47;101128.75;5186156;28;20050;-58
2022/08/21 06:46:51;;;;;;;4.63;3.20;;;28.00;60.80;;;27.14;60.31;101126.69;5165969;28;20121;-61
2022/08/21 06:49:23;;;;;;;8.40;3.78;;;26.80;63.20;;;25.76;63.74;101126.63;5186435;28;20046;-61
2022/08/21 06:51:56;;;;;;;5.93;3.05;;;25.60;66.00;;;24.87;67.13;101131.03;5184483;28;20050;-59
2022/08/21 06:54:28;;;;;;;6.22;3.08;;;24.70;68.70;;;24.51;69.09;101122.78;5182852;28;20054;-59
2022/08/21 06:57:00;;;;;;;5.55;3.30;;;24.10;71.20;;;24.36;70.83;101118.63;5184393;28;20120;-63
2022/08/21 06:59:34;;;;;;;5.05;2.83;;;23.90;73.20;;;24.20;70.81;101127.75;5183635;28;20498;-59
2022/08/21 07:02:07;;;;;;;7.32;3.25;;;23.60;74.10;;;24.09;71.78;101119.91;5183646;28;20070;-60
2022/08/21 07:04:39;;;;;;;5.82;3.03;;;23.40;75.30;;;23.98;71.80;101127.19;5183804;28;20514;-59
2022/08/21 07:07:11;;;;;;;6.53;3.60;;;23.30;76.00;;;23.81;72.44;101126.56;5184528;28;20584;-60
2022/08/21 07:09:44;;;;;;;6.25;2.97;;;23.20;76.90;;;23.65;73.05;101133.00;5185074;28;20127;-59
2022/08/21 07:12:16;;;;;;;7.25;3.15;;;23.10;77.60;;;23.72;73.93;101132.00;5185705;28;20045;-60
2022/08/21 07:14:50;;;;;;;6.25;2.92;;;23.10;78.70;;;23.83;73.36;101122.09;5185739;28;20511;-58
2022/08/21 07:17:22;;;;;;;6.40;2.92;;;23.10;78.60;;;23.93;72.98;101122.81;5185333;28;20096;-58
2022/08/21 07:19:54;;;;;;;7.95;3.03;;;23.20;78.90;;;24.01;72.29;101127.16;5185452;28;20049;-59
2022/08/21 07:22:27;;;;;;;8.55;3.17;;;23.20;78.60;;;24.17;73.54;101124.25;5185695;28;20045;-61
2022/08/21 07:24:59;;;;;;;4.20;2.67;;;23.30;79.60;;;24.28;73.03;101115.19;5184320;28;20081;-59
2022/08/21 07:27:32;;;;;;;4.88;2.97;;;23.50;79.80;;;24.38;72.36;101123.03;5183051;28;20050;-60
2022/08/21 07:30:08;;;;;;;6.28;2.80;;;23.60;79.20;;;24.40;72.05;101119.47;5184193;28;20057;-59
2022/08/21 07:32:40;;;;;;;6.65;3.10;;;23.60;78.90;;;24.48;71.80;101122.88;5246642;22;20041;-59
2022/08/21 07:35:12;;;;;;;5.18;3.20;;;23.70;79.10;;;24.56;72.25;101126.25;5192183;28;20410;-58
2022/08/21 07:37:45;;;;;;;7.40;2.97;;;23.70;79.20;;;24.68;71.95;101124.31;5184932;28;20046;-59
2022/08/21 07:40:18;;;;;;;5.32;2.45;;;23.80;79.20;;;24.78;71.77;101126.78;5165297;28;20050;-58
2022/08/21 07:42:51;;;;;;;7.10;3.30;;;23.90;79.10;;;24.89;71.05;101129.22;5164905;28;20039;-58
2022/08/21 07:45:26;;;;;;;6.32;2.90;;;24.00;78.80;;;24.99;71.04;101128.16;5165310;28;20398;-58
2022/08/21 07:47:58;;;;;;;6.22;2.40;;;24.10;78.50;;;25.06;70.43;101129.81;5165401;28;20046;-57
2022/08/21 07:50:30;;;;;;;5.85;2.22;;;24.10;78.10;;;25.14;70.38;101125.19;5165503;28;20054;-59
2022/08/21 07:53:03;;;;;;;4.38;2.38;;;24.20;78.10;;;25.29;69.84;101123.13;5165401;28;20046;-58
2022/08/21 07:55:36;;;;;;;4.43;2.50;;;24.30;77.90;;;25.38;69.56;101117.63;5164939;28;20061;-59
2022/08/21 07:58:08;;;;;;;7.78;2.33;;;24.40;77.50;;;25.49;69.22;101120.91;5164552;28;20050;-58
2022/08/21 08:00:42;;;;;;;5.05;2.40;;;24.50;77.20;;;25.63;69.09;101110.84;5165164;28;20101;-61
2022/08/21 08:03:14;;;;;;;;;;;24.60;77.10;;;25.78;68.74;101114.09;5181326;28;20057;-58
2022/08/21 08:05:46;;;;;;;3.72;2.00;;;24.70;76.70;;;25.91;67.89;101113.78;5182161;28;20264;-58
2022/08/21 08:08:19;;;;;;;4.03;2.15;;;24.80;76.20;;;26.04;66.50;101114.38;5181804;28;20546;-58
2022/08/21 08:10:51;;;;;;;6.05;2.00;;;24.90;75.10;;;26.35;67.00;101125.19;5182362;28;20056;-60
2022/08/21 08:13:24;;;;;;;6.00;2.20;;;25.00;75.30;;;26.69;65.48;101125.22;5182308;28;20093;-58
2022/08/21 08:15:58;;;;;;;4.85;2.10;;;25.30;74.60;;;27.07;64.59;101126.00;5182686;28;20080;-58
2022/08/21 08:18:30;;;;;;;4.93;1.90;;;25.50;73.80;;;27.46;63.98;101128.44;5182336;28;20045;-58
2022/08/21 08:21:02;;;;;;;3.53;1.63;;;25.70;73.50;;;27.81;62.60;101128.25;5184886;28;20498;-58
2022/08/21 08:23:35;;;;;;;5.72;1.88;;;25.90;72.40;;;28.22;61.52;101123.34;5185202;28;20045;-59
2022/08/21 08:26:08;;;;;;;3.88;1.80;;;26.10;71.80;;;28.62;60.61;101114.84;5184554;28;20065;-60
2022/08/21 08:28:40;;;;;;;4.82;1.80;;;26.40;71.00;;;29.04;60.10;101121.47;5166806;28;20470;-60
2022/08/21 08:31:14;;;;;;;4.00;1.80;;;26.50;70.90;;;29.73;58.57;101117.94;5184458;28;20041;-59
2022/08/21 08:33:46;;;;;;;;;;;26.80;70.60;;;30.45;57.06;101116.78;5184652;28;20050;-61
2022/08/21 08:36:19;;;;;;;4.70;1.60;;;27.20;69.00;;;31.10;55.59;101115.72;5184323;28;19929;-62
2022/08/21 08:38:52;;;;;;;3.97;1.65;;;27.60;68.30;;;32.01;54.02;101121.31;5184120;28;20045;-60
2022/08/21 08:41:24;;;;;;;4.72;1.65;;;28.10;67.20;;;32.84;52.11;101118.00;5184117;28;20050;-62
2022/08/21 08:44:02;;;;;;;3.95;1.60;;;28.80;65.20;;;33.82;50.88;101106.38;5184618;28;20503;-61
2022/08/21 08:46:42;;;;;;;5.05;1.52;;;29.70;63.50;;;34.63;48.98;101105.22;5183954;28;20038;-60
2022/08/21 08:49:17;;;;;;;;;;;30.50;61.00;;;35.19;48.11;101108.09;5184879;28;20483;-61
2022/08/21 08:51:55;;;;;;;4.45;1.60;;;31.10;59.50;;;35.94;46.89;101106.00;5184130;28;20425;-60
2022/08/21 08:54:38;;;;;;;4.15;1.52;;;31.80;58.50;;;36.49;45.91;101107.69;5184005;28;20069;-62
2022/08/21 08:57:16;;;;;;;4.40;1.65;;;32.30;57.10;;;36.79;45.24;101116.44;5183779;28;20418;-62
2022/08/21 08:59:52;;;;;;;3.47;1.50;;;32.70;55.90;;;37.15;44.44;101106.66;5184003;28;20510;-60
2022/08/21 09:02:27;;;;;;;3.83;1.50;;;33.10;54.80;;;37.58;43.67;101100.88;5184005;28;20042;-62
2022/08/21 09:05:01;;;;;;;3.47;1.27;;;33.50;53.70;;;37.70;42.63;101098.09;5183735;28;20038;-61
2022/08/21 09:07:44;;;;;;;4.30;1.52;;;33.70;52.40;;;37.58;42.62;101096.28;5183383;28;20049;-59
2022/08/21 09:10:22;;;;;;;3.42;1.35;;;33.80;51.80;;;37.36;42.65;101093.41;5183913;28;20556;-61
2022/08/21 09:13:08;;;;;;;3.40;1.60;;;33.80;51.60;;;36.86;43.39;101093.31;5183433;28;20046;-60
2022/08/21 09:15:55;;;;;;;4.93;1.50;;;33.60;51.80;;;36.48;43.67;101090.53;5183518;28;20042;-58
2022/08/21 09:18:41;;;;;;;2.78;1.50;;;33.40;51.90;;;35.99;44.32;101087.53;5183421;28;20419;-58
2022/08/21 09:21:28;;;;;;;4.07;1.42;;;33.20;52.00;;;35.31;45.71;101085.63;5183481;28;20037;-60
2022/08/21 09:24:04;;;;;;;;;;;33.00;52.70;;;34.55;45.86;101083.13;5183963;28;20046;-59
2022/08/21 09:26:51;;;;;;;2.80;1.23;;;32.60;52.50;;;33.73;46.66;101076.22;5182665;28;19933;-58
2022/08/21 09:29:29;;;;;;;3.63;1.40;;;32.10;52.80;;;33.09;47.66;101077.09;5183401;28;20054;-59
2022/08/21 09:32:01;;;;;;;3.25;1.20;;;31.70;53.50;;;32.51;48.41;101071.19;5183072;28;20041;-59
2022/08/21 09:34:35;;;;;;;2.22;1.30;;;31.20;53.80;;;32.02;49.40;101063.78;5183292;28;20045;-57
2022/08/21 09:37:18;;;;;;;1.98;1.20;;;30.80;54.50;;;31.63;49.89;101065.72;5183072;28;20076;-58
2022/08/21 09:39:51;;;;;;;2.33;1.35;;;30.40;54.90;;;31.39;50.70;101063.25;5183118;28;20442;-59
2022/08/21 09:42:27;;;;;;;3.13;1.10;;;30.20;55.70;;;31.19;50.25;101065.97;5183233;28;20057;-59
2022/08/21 09:45:14;;;;;;;3.85;1.13;;;30.00;55.60;;;30.99;51.19;101059.69;5183416;28;20494;-57
2022/08/21 09:47:47;;;;;;;3.38;1.33;;;29.90;56.10;;;30.92;51.29;101069.00;5183045;28;20041;-58
2022/08/21 09:50:25;;;;;;;4.47;1.33;;;29.70;56.20;;;30.71;50.64;101075.34;5184465;28;20045;-59
2022/08/21 09:53:00;;;;;;;3.65;1.40;;;29.60;55.70;;;30.57;52.49;101066.97;5187595;28;20049;-57
2022/08/21 09:58:34;;;;;;;4.60;1.42;;;29.40;56.90;;;30.45;51.98;101045.06;5187428;28;20042;-59
2022/08/21 10:01:12;;;;;;;2.15;1.10;;;29.40;56.90;;;30.38;52.52;101043.56;5187353;28;20054;-59
2022/08/21 10:03:46;;;;;;;1.98;0.90;;;29.30;57.00;;;30.32;52.52;101035.78;5187490;28;20399;-59
2022/08/21 10:06:27;;;;;;;2.40;1.33;;;29.20;57.20;;;30.33;52.96;101045.59;5186574;28;20047;-61
2022/08/21 10:09:09;;;;;;;4.18;1.27;;;29.20;57.40;;;30.26;52.19;101038.75;5176138;28;20034;-56
2022/08/21 10:11:51;;;;;;;2.33;0.95;;;29.20;57.00;;;30.26;51.94;101036.94;5170460;28;20111;-57
2022/08/21 10:14:43;;;;;;;4.55;1.35;;;29.10;57.20;;;30.29;51.73;101029.66;5166822;28;20129;-58
2022/08/21 10:17:24;;;;;;;2.90;1.02;;;29.10;56.80;;;30.54;52.03;101031.22;5178873;28;20070;-61
2022/08/21 10:20:08;;;;;;;4.18;1.30;;;29.30;57.00;;;30.72;51.46;101016.09;5179574;28;20042;-61
2022/08/21 10:22:51;;;;;;;2.25;1.13;;;29.40;56.40;;;30.78;50.62;101017.63;5186116;28;20556;-56
2022/08/21 10:25:32;;;;;;;3.20;1.25;;;29.50;56.10;;;30.71;50.31;101016.13;5144032;28;20054;-58
2022/08/21 10:28:20;;;;;;;1.70;1.10;;;29.50;55.60;;;30.66;51.08;101020.84;5151224;28;20487;-57
2022/08/21 10:30:58;;;;;;;3.63;1.52;;;29.50;56.00;;;30.53;50.58;101013.31;5169320;28;20388;-57
2022/08/21 10:33:52;;;;;;;3.22;1.10;;;29.40;55.50;;;30.56;51.83;101009.63;5171864;28;20046;-58
2022/08/21 10:36:35;;;;;;;2.00;1.00;;;29.40;56.40;;;30.63;51.19;101013.78;5178529;28;20398;-56
2022/08/21 10:39:22;;;;;;;2.90;1.10;;;29.50;56.00;;;30.68;50.57;101005.53;5184011;28;20050;-56
2022/08/21 10:42:16;;;;;;;2.67;1.10;;;29.50;55.50;;;30.79;50.89;101000.53;5184079;28;20046;-60
2022/08/21 10:45:11;;;;;;;3.38;1.30;;;29.60;55.80;;;30.98;50.11;101001.44;5185395;28;20046;-59